Time;durP1;ratioP1;P1;durP2;ratioP2;P2;SDS_P1;SDS_P2;PMS_P1;PMS_P2;Temp;Humidity;BMP_temperature;BMP_pressure;BME280_temperature;BME280_humidity;BME280_pressure;Samples;Min_cycle;Max_cycle;Signal;HPM_P1;HPM_P2
2023/12/25 00:00:17;;;;;;;22.20;3.80;;;10.60;82.60;;;;;;5022554;28;20045;-81
2023/12/25 00:02:42;;;;;;;24.47;4.60;;;10.60;82.80;;;;;;5024102;28;20060;-80
2023/12/25 00:05:08;;;;;;;17.87;3.87;;;10.60;82.60;;;;;;5025295;28;20451;-84
2023/12/25 00:07:33;;;;;;;18.37;4.20;;;10.60;82.70;;;;;;5025406;28;20591;-79
2023/12/25 00:09:59;;;;;;;21.77;4.33;;;10.60;82.60;;;;;;5026434;28;20041;-79
2023/12/25 00:12:25;;;;;;;24.03;4.50;;;10.60;82.60;;;;;;5024807;28;20427;-81
2023/12/25 00:14:51;;;;;;;24.40;4.47;;;10.60;82.50;;;;;;5024642;28;20485;-81
2023/12/25 00:17:16;;;;;;;27.63;4.70;;;10.60;82.50;;;;;;5024582;28;20041;-80
2023/12/25 00:19:42;;;;;;;18.10;4.13;;;10.60;82.50;;;;;;5026984;28;20087;-79
2023/12/25 00:22:08;;;;;;;20.87;4.47;;;10.60;82.40;;;;;;5024562;28;20068;-79
2023/12/25 00:24:33;;;;;;;24.47;4.20;;;10.60;82.30;;;;;;5024788;28;20049;-79
2023/12/25 00:26:59;;;;;;;23.87;4.97;;;10.60;82.10;;;;;;5024163;28;20100;-80
2023/12/25 00:29:25;;;;;;;26.67;4.63;;;10.60;82.00;;;;;;5024914;28;20159;-79
2023/12/25 00:31:50;;;;;;;24.27;4.03;;;10.60;82.10;;;;;;5025711;28;20107;-79
2023/12/25 00:34:16;;;;;;;21.87;4.87;;;10.60;82.10;;;;;;5023229;28;20112;-79
2023/12/25 00:36:42;;;;;;;21.43;3.80;;;10.60;82.00;;;;;;5024783;28;20037;-80
2023/12/25 00:39:08;;;;;;;17.73;4.07;;;10.60;81.90;;;;;;5023554;28;20104;-79
2023/12/25 00:41:33;;;;;;;23.00;4.03;;;10.60;81.90;;;;;;5017430;28;20069;-80
2023/12/25 00:43:59;;;;;;;19.33;4.13;;;10.60;81.80;;;;;;5005416;28;20069;-82
2023/12/25 00:46:25;;;;;;;18.37;3.57;;;10.60;81.20;;;;;;4996101;28;20073;-79
2023/12/25 00:48:51;;;;;;;17.90;3.70;;;10.60;81.40;;;;;;5009848;28;20050;-80
2023/12/25 00:51:16;;;;;;;14.60;3.50;;;10.60;81.10;;;;;;5004744;28;20046;-78
2023/12/25 00:53:42;;;;;;;17.00;3.30;;;10.60;80.70;;;;;;5029707;28;20048;-78
2023/12/25 00:56:08;;;;;;;16.90;2.93;;;10.50;79.80;;;;;;5027566;28;20069;-79
2023/12/25 00:58:34;;;;;;;21.20;3.47;;;10.50;79.70;;;;;;5020382;28;20049;-82
2023/12/25 01:01:00;;;;;;;14.00;3.23;;;10.60;79.00;;;;;;5025799;28;20091;-78
2023/12/25 01:03:25;;;;;;;16.13;3.07;;;10.50;78.70;;;;;;5022988;28;20089;-79
2023/12/25 01:05:51;;;;;;;13.77;3.33;;;10.50;78.70;;;;;;5009104;28;20413;-76
2023/12/25 01:08:17;;;;;;;17.20;3.00;;;10.50;77.90;;;;;;5028312;28;20049;-81
2023/12/25 01:10:42;;;;;;;16.60;2.90;;;10.50;77.90;;;;;;5028528;28;20049;-80
2023/12/25 01:13:08;;;;;;;21.13;3.23;;;10.60;78.00;;;;;;5021941;28;20068;-78
2023/12/25 01:15:34;;;;;;;15.27;3.27;;;10.50;77.70;;;;;;5000836;28;20568;-80
2023/12/25 01:17:59;;;;;;;16.50;3.17;;;10.50;77.60;;;;;;5022146;28;20132;-78
2023/12/25 01:20:25;;;;;;;18.30;2.73;;;10.40;77.70;;;;;;5021138;28;20464;-78
2023/12/25 01:22:51;;;;;;;14.80;2.53;;;10.50;77.20;;;;;;4989642;28;20050;-79
2023/12/25 01:25:17;;;;;;;14.23;2.90;;;10.50;77.10;;;;;;4990548;28;20050;-78
2023/12/25 01:27:42;;;;;;;16.67;3.17;;;10.40;77.10;;;;;;5028757;28;20665;-79
2023/12/25 01:30:11;;;;;;;14.30;3.10;;;10.40;76.90;;;;;;5016763;28;20458;-78
2023/12/25 01:32:37;;;;;;;21.03;3.60;;;10.40;77.10;;;;;;5013976;28;20567;-79
2023/12/25 01:35:04;;;;;;;14.53;2.73;;;10.40;77.30;;;;;;5010096;28;20060;-76
2023/12/25 01:37:29;;;;;;;13.27;3.10;;;10.30;77.60;;;;;;5022560;28;20400;-79
2023/12/25 01:39:55;;;;;;;16.83;3.57;;;10.30;77.70;;;;;;5028523;28;20054;-77
2023/12/25 01:42:21;;;;;;;16.10;3.80;;;10.20;77.50;;;;;;5022535;28;20417;-80
2023/12/25 01:44:47;;;;;;;17.70;3.40;;;10.20;77.50;;;;;;5027101;28;20056;-81
2023/12/25 01:47:15;;;;;;;22.37;3.87;;;10.20;77.50;;;;;;5026776;28;20056;-78
2023/12/25 01:49:41;;;;;;;18.13;3.30;;;10.20;77.60;;;;;;5028576;28;20053;-80
2023/12/25 01:52:07;;;;;;;17.13;3.33;;;10.10;77.70;;;;;;5043183;28;20045;-78
2023/12/25 01:54:34;;;;;;;16.03;3.10;;;10.10;77.00;;;;;;5027095;28;20055;-78
2023/12/25 01:57:00;;;;;;;18.70;3.27;;;10.10;77.30;;;;;;5024452;28;20054;-78
2023/12/25 01:59:28;;;;;;;16.87;2.90;;;10.10;76.20;;;;;;5012806;28;20055;-77
2023/12/25 02:01:54;;;;;;;14.30;2.50;;;10.10;76.20;;;;;;5026930;28;20049;-78
2023/12/25 02:04:20;;;;;;;11.43;2.63;;;10.10;76.20;;;;;;5026682;28;20048;-77
2023/12/25 02:06:47;;;;;;;16.53;3.30;;;10.10;76.50;;;;;;5025866;28;20053;-78
2023/12/25 02:09:13;;;;;;;15.70;3.17;;;10.10;75.90;;;;;;5026729;28;20133;-76
2023/12/25 02:11:41;;;;;;;16.80;2.77;;;10.10;76.40;;;;;;5026642;28;20060;-78
2023/12/25 02:14:07;;;;;;;11.50;2.87;;;10.00;76.10;;;;;;5027344;28;20054;-78
2023/12/25 02:16:33;;;;;;;16.27;3.47;;;10.00;76.00;;;;;;5025894;28;20046;-76
2023/12/25 02:18:59;;;;;;;15.77;3.30;;;10.00;76.10;;;;;;5026853;28;20046;-79
2023/12/25 02:21:25;;;;;;;14.87;3.03;;;10.00;76.20;;;;;;5025345;28;20053;-76
2023/12/25 02:23:59;;;;;;;15.83;2.93;;;10.00;76.20;;;;;;5027463;28;20060;-76
2023/12/25 02:26:25;;;;;;;12.97;3.33;;;10.00;75.70;;;;;;5024044;28;20143;-78
2023/12/25 02:28:50;;;;;;;13.87;3.00;;;10.00;76.10;;;;;;5026740;28;20108;-78
2023/12/25 02:31:17;;;;;;;17.13;3.30;;;10.00;76.40;;;;;;5006331;28;20069;-77
2023/12/25 02:33:43;;;;;;;18.17;3.37;;;10.00;76.30;;;;;;5019693;28;20049;-77
2023/12/25 02:36:08;;;;;;;17.93;2.90;;;10.00;76.30;;;;;;5026492;28;20057;-77
2023/12/25 02:38:34;;;;;;;17.30;3.83;;;9.90;76.60;;;;;;5026924;28;20448;-78
2023/12/25 02:41:00;;;;;;;12.83;3.07;;;10.00;76.50;;;;;;5026843;28;20556;-78
2023/12/25 02:43:26;;;;;;;19.03;3.50;;;10.00;76.50;;;;;;5019912;28;20057;-78
2023/12/25 02:45:51;;;;;;;17.87;3.13;;;10.00;76.50;;;;;;5026981;28;20049;-78
2023/12/25 02:48:18;;;;;;;17.70;3.40;;;9.90;76.80;;;;;;5026320;28;20057;-78
2023/12/25 02:50:44;;;;;;;14.07;2.90;;;9.90;77.00;;;;;;5024918;28;20053;-78
2023/12/25 02:53:09;;;;;;;18.87;3.47;;;9.90;77.20;;;;;;5027640;28;20060;-78
2023/12/25 02:55:35;;;;;;;19.67;3.77;;;9.80;77.50;;;;;;5026251;28;20056;-77
2023/12/25 02:58:01;;;;;;;20.00;3.63;;;9.80;77.90;;;;;;5015953;28;20042;-78
2023/12/25 03:00:26;;;;;;;18.03;4.20;;;9.80;78.40;;;;;;5021174;28;20054;-77
2023/12/25 03:02:52;;;;;;;20.10;4.53;;;9.80;78.70;;;;;;5026025;28;20041;-78
2023/12/25 03:05:17;;;;;;;21.53;4.30;;;9.70;79.30;;;;;;5025928;28;20046;-76
2023/12/25 03:07:43;;;;;;;25.00;4.07;;;9.80;79.70;;;;;;5027063;28;20057;-78
2023/12/25 03:10:09;;;;;;;31.40;4.93;;;9.80;79.80;;;;;;5025749;28;20160;-77
2023/12/25 03:12:34;;;;;;;20.47;3.93;;;9.80;80.00;;;;;;5025996;28;20045;-80
2023/12/25 03:15:00;;;;;;;27.20;4.47;;;9.80;80.20;;;;;;5027063;28;20571;-77
2023/12/25 03:17:26;;;;;;;19.30;3.87;;;9.70;80.30;;;;;;5025917;28;20133;-78
2023/12/25 03:19:51;;;;;;;24.93;4.57;;;9.80;80.10;;;;;;5026986;28;20045;-77
2023/12/25 03:22:17;;;;;;;27.23;4.53;;;9.80;80.10;;;;;;5024440;28;20136;-78
2023/12/25 03:24:42;;;;;;;19.87;3.93;;;9.80;80.00;;;;;;5027198;28;20506;-77
2023/12/25 03:27:08;;;;;;;23.17;4.20;;;9.80;80.00;;;;;;5024473;28;20549;-77
2023/12/25 03:29:34;;;;;;;25.67;4.20;;;9.80;79.80;;;;;;5023221;28;20132;-76
2023/12/25 03:32:00;;;;;;;27.17;4.40;;;9.80;79.70;;;;;;5023572;28;20045;-78
2023/12/25 03:34:26;;;;;;;20.00;3.60;;;9.80;79.30;;;;;;5023401;28;20153;-77
2023/12/25 03:36:51;;;;;;;26.67;3.93;;;9.80;79.10;;;;;;5025055;28;20049;-78
2023/12/25 03:39:17;;;;;;;25.43;3.97;;;9.70;79.20;;;;;;5025482;28;20057;-78
2023/12/25 03:41:43;;;;;;;18.33;4.17;;;9.70;79.00;;;;;;5019558;28;20049;-78
2023/12/25 03:44:08;;;;;;;24.13;4.10;;;9.70;78.90;;;;;;5025475;28;20068;-78
2023/12/25 03:46:34;;;;;;;21.90;3.43;;;9.70;78.60;;;;;;5025778;28;20107;-77
2023/12/25 03:49:00;;;;;;;18.00;3.70;;;9.70;78.60;;;;;;5025630;28;20092;-77
2023/12/25 03:51:25;;;;;;;16.57;3.57;;;9.70;78.50;;;;;;5024191;28;20061;-77
2023/12/25 03:53:51;;;;;;;23.60;3.97;;;9.70;78.30;;;;;;5025965;28;20416;-76
2023/12/25 03:56:18;;;;;;;22.90;4.00;;;9.70;78.30;;;;;;5026087;28;20132;-77
2023/12/25 03:58:44;;;;;;;21.30;3.67;;;9.70;78.20;;;;;;5026629;28;20056;-77
2023/12/25 04:01:12;;;;;;;16.27;3.20;;;9.80;78.10;;;;;;5026334;28;20044;-77
2023/12/25 04:03:38;;;;;;;18.17;3.70;;;9.70;77.70;;;;;;5025884;28;20058;-77
2023/12/25 04:06:04;;;;;;;18.27;4.00;;;9.70;77.90;;;;;;5025617;28;20061;-77
2023/12/25 04:08:29;;;;;;;15.73;3.43;;;9.70;77.40;;;;;;5026224;28;20057;-76
2023/12/25 04:10:55;;;;;;;19.13;3.50;;;9.70;77.50;;;;;;5026013;28;20148;-76
2023/12/25 04:13:20;;;;;;;18.20;3.77;;;9.70;77.30;;;;;;5017902;28;20081;-77
2023/12/25 04:15:46;;;;;;;15.13;3.37;;;9.70;77.50;;;;;;5009382;28;20097;-76
2023/12/25 04:18:12;;;;;;;19.67;3.70;;;9.70;77.50;;;;;;5020710;28;20045;-76
2023/12/25 04:20:37;;;;;;;18.37;3.37;;;9.70;77.50;;;;;;5029255;28;20051;-77
2023/12/25 04:23:03;;;;;;;22.77;4.10;;;9.70;77.50;;;;;;5030341;28;20132;-76
2023/12/25 04:25:29;;;;;;;18.37;4.07;;;9.70;77.80;;;;;;5029550;28;20049;-77
2023/12/25 04:27:54;;;;;;;19.20;3.97;;;9.70;77.80;;;;;;5029698;28;20060;-76
2023/12/25 04:30:20;;;;;;;22.17;4.50;;;9.70;77.80;;;;;;5015894;28;20054;-76
2023/12/25 04:32:46;;;;;;;21.77;3.87;;;9.80;77.90;;;;;;5015772;28;20401;-77
2023/12/25 04:35:12;;;;;;;21.77;4.40;;;9.80;78.10;;;;;;5009373;28;20049;-76
2023/12/25 04:37:38;;;;;;;22.03;4.47;;;9.80;78.10;;;;;;5009982;28;20046;-76
2023/12/25 04:40:04;;;;;;;22.60;4.00;;;9.80;78.20;;;;;;5034416;28;20079;-75
2023/12/25 04:42:29;;;;;;;18.43;3.87;;;9.80;78.10;;;;;;5028122;28;20132;-76
2023/12/25 04:44:56;;;;;;;22.67;3.63;;;9.80;78.10;;;;;;5028545;28;20053;-76
2023/12/25 04:47:22;;;;;;;18.73;3.77;;;9.80;78.10;;;;;;5028901;28;20041;-77
2023/12/25 04:49:47;;;;;;;17.23;3.83;;;9.80;78.40;;;;;;5029666;28;20056;-76
2023/12/25 04:52:13;;;;;;;16.87;3.20;;;9.80;78.30;;;;;;5028992;28;20136;-76
2023/12/25 04:54:39;;;;;;;19.10;3.43;;;9.70;78.40;;;;;;5021600;28;20105;-76
2023/12/25 04:57:04;;;;;;;19.07;3.60;;;9.80;78.40;;;;;;5008506;28;20046;-77
2023/12/25 04:59:30;;;;;;;17.90;3.93;;;9.80;78.40;;;;;;5015502;28;20073;-77
2023/12/25 05:01:56;;;;;;;15.40;3.40;;;9.70;78.20;;;;;;5028779;28;20048;-76
2023/12/25 05:04:21;;;;;;;16.00;3.50;;;9.70;78.50;;;;;;5028956;28;20037;-76
2023/12/25 05:06:47;;;;;;;15.73;4.00;;;9.60;78.50;;;;;;5027524;28;20484;-76
2023/12/25 05:09:13;;;;;;;20.13;3.83;;;9.60;78.50;;;;;;5029291;28;20133;-75
2023/12/25 05:11:38;;;;;;;20.20;3.80;;;9.60;78.60;;;;;;5028586;28;20409;-77
2023/12/25 05:14:04;;;;;;;20.27;3.47;;;9.60;78.50;;;;;;5029189;28;20061;-74
2023/12/25 05:16:30;;;;;;;19.13;3.53;;;9.60;78.60;;;;;;5027500;28;20080;-76
2023/12/25 05:18:55;;;;;;;22.63;4.40;;;9.50;78.50;;;;;;5028461;28;20081;-77
2023/12/25 05:21:21;;;;;;;16.37;4.03;;;9.50;78.50;;;;;;5027844;28;20454;-76
2023/12/25 05:23:47;;;;;;;25.97;4.10;;;9.50;78.60;;;;;;5028283;28;20563;-76
2023/12/25 05:26:12;;;;;;;22.33;3.40;;;9.50;78.50;;;;;;5027676;28;20487;-76
2023/12/25 05:28:38;;;;;;;18.87;3.73;;;9.50;78.50;;;;;;5027981;28;20046;-76
2023/12/25 05:31:04;;;;;;;19.63;3.63;;;9.50;78.60;;;;;;5039469;28;20312;-76
2023/12/25 05:33:29;;;;;;;18.37;3.43;;;9.40;78.60;;;;;;5014715;28;20081;-77
2023/12/25 05:35:55;;;;;;;10.37;2.90;;;9.40;78.20;;;;;;5015166;28;20045;-77
2023/12/25 05:38:21;;;;;;;23.50;3.57;;;9.50;78.00;;;;;;5026646;28;20593;-76
2023/12/25 05:40:46;;;;;;;16.33;3.30;;;9.50;78.10;;;;;;5030590;28;20041;-77
2023/12/25 05:43:12;;;;;;;15.70;3.40;;;9.50;78.10;;;;;;5022516;28;20080;-76
2023/12/25 05:45:38;;;;;;;21.70;3.33;;;9.40;78.10;;;;;;5027364;28;20049;-76
2023/12/25 05:48:04;;;;;;;21.80;3.90;;;9.40;78.10;;;;;;5028204;28;20060;-75
2023/12/25 05:50:30;;;;;;;24.97;4.40;;;9.40;78.10;;;;;;5026331;28;20053;-77
2023/12/25 05:52:55;;;;;;;14.83;3.03;;;9.40;78.10;;;;;;5028300;28;20049;-76
2023/12/25 05:55:21;;;;;;;19.80;4.07;;;9.30;78.10;;;;;;5027565;28;20049;-77
2023/12/25 05:57:48;;;;;;;16.50;3.27;;;9.20;77.90;;;;;;5028663;28;20128;-76
2023/12/25 06:00:14;;;;;;;17.13;3.27;;;9.20;78.00;;;;;;5009409;28;20404;-75
2023/12/25 06:02:40;;;;;;;17.93;3.47;;;9.20;78.00;;;;;;5010194;28;20100;-75
2023/12/25 06:05:06;;;;;;;14.37;3.10;;;9.20;78.10;;;;;;5026105;28;20563;-75
2023/12/25 06:07:32;;;;;;;21.07;3.57;;;9.20;78.10;;;;;;5025891;28;20053;-76
2023/12/25 06:09:57;;;;;;;19.37;3.83;;;9.20;78.30;;;;;;5027599;28;20420;-76
2023/12/25 06:12:23;;;;;;;19.33;4.00;;;9.10;78.40;;;;;;5027418;28;20107;-76
2023/12/25 06:14:49;;;;;;;20.77;3.90;;;9.00;78.60;;;;;;5008217;28;20090;-75
2023/12/25 06:17:14;;;;;;;23.20;4.03;;;9.00;78.60;;;;;;5012357;28;20250;-75
2023/12/25 06:19:40;;;;;;;20.43;4.03;;;9.00;78.80;;;;;;5025366;28;20550;-76
2023/12/25 06:22:06;;;;;;;21.53;4.13;;;9.00;78.90;;;;;;5026633;28;20093;-77
2023/12/25 06:24:32;;;;;;;19.00;3.70;;;9.00;78.90;;;;;;5044625;28;20398;-75
2023/12/25 06:26:57;;;;;;;16.53;3.97;;;9.00;79.00;;;;;;5019288;28;20084;-76
2023/12/25 06:29:23;;;;;;;21.77;4.03;;;9.00;79.10;;;;;;5024240;28;20049;-76
2023/12/25 06:31:49;;;;;;;24.40;4.30;;;9.00;79.20;;;;;;5025157;28;20045;-76
2023/12/25 06:34:14;;;;;;;18.30;3.50;;;9.00;79.30;;;;;;5026446;28;20048;-75
2023/12/25 06:36:40;;;;;;;23.47;3.93;;;9.00;79.30;;;;;;5025763;28;20507;-76
2023/12/25 06:39:06;;;;;;;16.87;3.40;;;8.90;79.40;;;;;;5027179;28;20409;-75
2023/12/25 06:41:32;;;;;;;21.93;3.97;;;8.90;79.60;;;;;;5025653;28;20512;-76
2023/12/25 06:43:57;;;;;;;20.70;4.00;;;8.90;79.70;;;;;;5021357;28;20503;-76
2023/12/25 06:46:23;;;;;;;20.93;3.83;;;9.00;79.70;;;;;;5025965;28;20409;-75
2023/12/25 06:48:49;;;;;;;21.23;4.10;;;9.00;79.90;;;;;;5027442;28;20053;-76
2023/12/25 06:51:14;;;;;;;23.33;4.30;;;9.00;80.00;;;;;;5026654;28;20041;-75
2023/12/25 06:53:41;;;;;;;17.80;3.63;;;9.00;80.10;;;;;;5027037;28;20445;-76
2023/12/25 06:56:07;;;;;;;24.83;4.40;;;9.00;80.10;;;;;;5026063;28;20076;-76
2023/12/25 06:58:33;;;;;;;26.53;4.87;;;9.00;80.20;;;;;;5026355;28;20057;-76
2023/12/25 07:01:00;;;;;;;26.63;4.67;;;9.00;80.10;;;;;;5025874;28;20049;-76
2023/12/25 07:03:26;;;;;;;25.07;4.40;;;9.00;80.10;;;;;;5025795;28;20073;-76
2023/12/25 07:05:52;;;;;;;19.83;4.13;;;9.10;80.00;;;;;;5026537;28;20073;-76
2023/12/25 07:08:18;;;;;;;21.53;3.93;;;9.00;80.10;;;;;;5026483;28;20552;-76
2023/12/25 07:10:46;;;;;;;24.73;3.77;;;9.00;80.10;;;;;;5026782;28;20176;-76
2023/12/25 07:13:12;;;;;;;16.60;3.60;;;9.00;80.00;;;;;;5026308;28;20045;-76
2023/12/25 07:15:38;;;;;;;17.97;3.90;;;9.00;80.10;;;;;;4997216;28;20394;-76
2023/12/25 07:18:06;;;;;;;22.67;4.03;;;9.00;80.00;;;;;;5014277;28;20045;-76
2023/12/25 07:20:31;;;;;;;17.63;3.60;;;9.00;80.20;;;;;;5025204;28;20064;-77
2023/12/25 07:22:57;;;;;;;18.67;3.47;;;8.90;80.20;;;;;;5027304;28;20046;-76
2023/12/25 07:25:22;;;;;;;23.20;4.13;;;8.90;80.30;;;;;;5025569;28;20425;-76
2023/12/25 07:27:48;;;;;;;21.57;3.67;;;8.90;80.30;;;;;;5025684;28;20053;-76
2023/12/25 07:30:14;;;;;;;18.33;3.70;;;8.90;80.40;;;;;;5024877;28;20050;-76
2023/12/25 07:32:41;;;;;;;20.07;3.97;;;9.00;80.20;;;;;;5020838;28;20045;-75
2023/12/25 07:35:07;;;;;;;21.00;3.60;;;8.90;80.00;;;;;;5024714;28;20107;-76
2023/12/25 07:37:33;;;;;;;22.87;4.00;;;8.90;80.00;;;;;;5025687;28;20112;-76
2023/12/25 07:39:59;;;;;;;23.93;4.40;;;8.90;80.00;;;;;;5027109;28;20049;-76
2023/12/25 07:42:26;;;;;;;21.77;3.60;;;8.90;80.10;;;;;;5019787;28;20082;-76
2023/12/25 07:44:52;;;;;;;21.63;3.50;;;8.90;80.10;;;;;;5007232;28;20048;-76
2023/12/25 07:47:17;;;;;;;20.83;3.77;;;8.90;80.30;;;;;;5007276;28;20432;-76
2023/12/25 07:49:43;;;;;;;19.20;3.53;;;8.90;80.30;;;;;;5006864;28;20056;-76
2023/12/25 07:52:09;;;;;;;16.20;2.93;;;8.80;80.10;;;;;;5006347;28;20045;-76
2023/12/25 07:54:34;;;;;;;19.57;3.57;;;8.80;79.70;;;;;;5006163;28;20068;-76
2023/12/25 07:57:00;;;;;;;28.83;3.87;;;8.70;79.10;;;;;;5005416;28;20045;-76
2023/12/25 07:59:26;;;;;;;16.07;3.17;;;8.60;79.10;;;;;;5006255;28;20089;-76
2023/12/25 08:01:52;;;;;;;22.77;3.77;;;8.60;79.20;;;;;;5012355;28;20535;-76
2023/12/25 08:04:17;;;;;;;21.20;4.07;;;8.50;78.80;;;;;;5014664;28;20061;-75
2023/12/25 08:06:43;;;;;;;20.17;3.40;;;8.50;78.60;;;;;;5025352;28;20111;-76
2023/12/25 08:09:09;;;;;;;16.83;3.10;;;8.40;78.40;;;;;;5025890;28;20056;-76
2023/12/25 08:11:35;;;;;;;16.67;3.00;;;8.40;78.20;;;;;;5022902;28;20049;-75
2023/12/25 08:14:01;;;;;;;16.90;3.13;;;8.40;78.00;;;;;;5023606;28;20608;-76
2023/12/25 08:16:27;;;;;;;14.37;2.40;;;8.30;77.80;;;;;;5023908;28;20053;-75
2023/12/25 08:18:53;;;;;;;14.50;2.57;;;8.30;77.60;;;;;;5023443;28;20124;-75
2023/12/25 08:21:20;;;;;;;12.13;2.27;;;8.30;77.10;;;;;;5023671;28;20041;-75
2023/12/25 08:23:46;;;;;;;14.67;2.63;;;8.20;77.00;;;;;;5041067;28;20065;-76
2023/12/25 08:26:11;;;;;;;14.70;3.07;;;8.20;76.90;;;;;;5024606;28;20080;-75
2023/12/25 08:28:38;;;;;;;13.97;2.73;;;8.20;76.80;;;;;;5024245;28;20056;-75
2023/12/25 08:31:04;;;;;;;15.00;2.90;;;8.10;77.00;;;;;;5022015;28;20447;-76
2023/12/25 08:33:29;;;;;;;11.67;2.43;;;8.10;77.00;;;;;;5016029;28;20045;-75
2023/12/25 08:35:55;;;;;;;14.27;2.80;;;8.10;77.30;;;;;;5021924;28;20409;-75
2023/12/25 08:38:21;;;;;;;16.30;2.53;;;8.00;77.40;;;;;;5021555;28;20046;-75
2023/12/25 08:40:47;;;;;;;16.87;2.60;;;8.00;77.60;;;;;;5022431;28;20087;-75
2023/12/25 08:43:12;;;;;;;12.87;2.57;;;8.00;77.40;;;;;;5017460;28;20052;-75
2023/12/25 08:45:38;;;;;;;14.27;2.80;;;8.00;77.70;;;;;;5022256;28;20187;-76
2023/12/25 08:48:04;;;;;;;13.00;2.83;;;8.00;77.80;;;;;;5022077;28;20053;-75
2023/12/25 08:50:30;;;;;;;10.17;2.30;;;8.00;77.80;;;;;;5021633;28;20057;-75
2023/12/25 08:52:55;;;;;;;18.13;3.33;;;8.00;77.70;;;;;;5022032;28;20146;-75
2023/12/25 08:55:22;;;;;;;17.00;3.10;;;8.00;77.80;;;;;;5033199;28;20056;-75
2023/12/25 08:57:47;;;;;;;13.97;2.70;;;8.00;77.80;;;;;;5023083;28;20045;-76
2023/12/25 09:00:13;;;;;;;13.73;2.77;;;8.00;77.60;;;;;;5022140;28;20045;-74
2023/12/25 09:02:39;;;;;;;15.70;3.07;;;8.00;77.80;;;;;;5024317;28;20544;-75
2023/12/25 09:05:05;;;;;;;14.50;3.03;;;8.00;78.00;;;;;;5026642;28;20154;-74
2023/12/25 09:07:31;;;;;;;16.07;3.60;;;8.00;78.20;;;;;;5026000;28;20061;-75
2023/12/25 09:09:58;;;;;;;14.47;2.83;;;8.00;78.20;;;;;;5025042;28;20053;-75
2023/12/25 09:12:23;;;;;;;15.10;2.93;;;8.00;78.20;;;;;;5023254;28;20389;-75
2023/12/25 09:14:49;;;;;;;14.13;2.80;;;8.00;78.10;;;;;;5021873;28;20045;-75
2023/12/25 09:17:16;;;;;;;12.03;2.57;;;8.00;78.40;;;;;;5024486;28;20065;-74
2023/12/25 09:19:42;;;;;;;11.57;2.60;;;8.00;78.40;;;;;;5024560;28;20098;-75
2023/12/25 09:22:08;;;;;;;17.77;2.77;;;8.00;78.50;;;;;;5025531;28;20493;-74
2023/12/25 09:24:34;;;;;;;11.20;2.33;;;8.00;78.60;;;;;;5026207;28;20060;-75
2023/12/25 09:27:00;;;;;;;18.83;2.67;;;8.00;78.70;;;;;;5024848;28;20132;-75
2023/12/25 09:29:27;;;;;;;16.43;2.93;;;8.00;78.50;;;;;;5022980;28;20056;-75
2023/12/25 09:31:52;;;;;;;15.33;2.63;;;8.10;78.60;;;;;;5025137;28;20053;-75
2023/12/25 09:34:18;;;;;;;12.77;2.60;;;8.10;78.70;;;;;;5015089;28;20107;-75
2023/12/25 09:36:44;;;;;;;15.50;2.60;;;8.20;78.70;;;;;;5025111;28;20114;-75
2023/12/25 09:39:10;;;;;;;15.37;2.43;;;8.30;79.00;;;;;;5025534;28;20065;-75
2023/12/25 09:41:37;;;;;;;15.77;2.77;;;8.30;78.80;;;;;;5024864;28;20042;-75
2023/12/25 09:44:04;;;;;;;17.90;2.77;;;8.30;78.70;;;;;;5022833;28;20061;-75
2023/12/25 09:46:31;;;;;;;16.40;2.90;;;8.30;78.70;;;;;;5023156;28;20527;-75
2023/12/25 09:48:57;;;;;;;16.33;2.40;;;8.30;78.70;;;;;;5024028;28;21051;-75
2023/12/25 09:51:25;;;;;;;13.53;3.00;;;8.30;78.60;;;;;;5025327;28;20049;-75
2023/12/25 09:53:51;;;;;;;14.83;2.77;;;8.30;78.60;;;;;;5025070;28;20057;-75
2023/12/25 09:56:19;;;;;;;16.00;2.90;;;8.30;78.60;;;;;;5025106;28;20045;-74
2023/12/25 09:58:46;;;;;;;13.17;3.50;;;8.30;78.50;;;;;;5025685;28;20057;-75
2023/12/25 10:01:13;;;;;;;14.57;3.43;;;8.30;78.60;;;;;;5025004;28;20049;-75
2023/12/25 10:03:43;;;;;;;23.83;5.80;;;8.30;78.70;;;;;;5025520;28;20095;-75
2023/12/25 10:06:09;;;;;;;13.40;3.83;;;8.30;78.70;;;;;;5024367;28;20409;-75
2023/12/25 10:08:36;;;;;;;12.17;2.80;;;8.30;78.50;;;;;;5023946;28;20049;-75
2023/12/25 10:11:04;;;;;;;12.87;2.33;;;8.30;78.30;;;;;;5023625;28;20053;-75
2023/12/25 10:13:30;;;;;;;12.10;2.27;;;8.30;78.50;;;;;;5021938;28;20053;-75
2023/12/25 10:15:56;;;;;;;14.70;2.20;;;8.30;78.40;;;;;;5023173;28;20055;-75
2023/12/25 10:18:22;;;;;;;14.60;2.60;;;8.30;78.60;;;;;;5024429;28;20136;-75
2023/12/25 10:20:59;;;;;;;17.90;2.27;;;8.30;78.40;;;;;;5023676;28;20053;-75
2023/12/25 10:23:32;;;;;;;13.60;2.43;;;8.40;78.40;;;;;;5024418;28;20103;-74
2023/12/25 10:26:00;;;;;;;15.80;2.73;;;8.40;78.10;;;;;;5024141;28;20045;-75
2023/12/25 10:28:27;;;;;;;14.87;2.90;;;8.40;78.20;;;;;;5024200;28;20041;-74
2023/12/25 10:31:07;;;;;;;10.77;2.70;;;8.50;77.90;;;;;;5021405;28;20099;-75
2023/12/25 10:33:35;;;;;;;16.57;3.13;;;8.50;77.80;;;;;;5019814;28;20110;-75
2023/12/25 10:36:04;;;;;;;19.07;3.90;;;8.50;78.00;;;;;;5023503;28;20050;-75
2023/12/25 10:38:38;;;;;;;18.43;4.07;;;8.50;77.60;;;;;;5024682;28;20053;-75
2023/12/25 10:41:18;;;;;;;21.87;7.80;;;8.50;77.90;;;;;;5020878;28;20139;-75
2023/12/25 10:43:49;;;;;;;16.87;5.93;;;8.50;77.70;;;;;;5018578;28;20386;-75
2023/12/25 10:46:16;;;;;;;14.07;3.55;;;8.60;77.80;;;;;;5023506;28;20049;-76
2023/12/25 10:48:45;;;;;;;18.80;3.70;;;8.60;77.70;;;;;;5022211;28;20038;-74
2023/12/25 10:51:11;;;;;;;16.50;3.47;;;8.70;77.40;;;;;;5023902;28;20053;-75
2023/12/25 10:53:37;;;;;;;14.03;3.77;;;8.80;77.30;;;;;;5024175;28;20061;-75
2023/12/25 10:56:03;;;;;;;13.27;3.33;;;8.80;77.40;;;;;;5023444;28;20144;-75
2023/12/25 10:58:29;;;;;;;21.37;3.70;;;8.90;77.20;;;;;;5023370;28;20053;-75
2023/12/25 11:00:57;;;;;;;18.77;4.60;;;9.00;77.10;;;;;;5023961;28;20061;-75
2023/12/25 11:03:24;;;;;;;20.47;4.03;;;9.20;77.20;;;;;;5021946;28;20052;-74
2023/12/25 11:05:50;;;;;;;13.37;3.67;;;9.20;76.90;;;;;;5023572;28;20056;-75
2023/12/25 11:08:19;;;;;;;15.80;2.80;;;9.30;76.60;;;;;;5023631;28;20049;-75
2023/12/25 11:10:45;;;;;;;15.40;3.10;;;9.40;76.80;;;;;;5022279;28;20084;-75
2023/12/25 11:13:13;;;;;;;17.93;3.17;;;9.40;76.90;;;;;;5022093;28;20082;-75
2023/12/25 11:15:39;;;;;;;18.97;3.73;;;9.30;76.80;;;;;;5021589;28;20511;-75
2023/12/25 11:18:07;;;;;;;18.57;3.20;;;9.20;77.40;;;;;;5023962;28;20084;-75
2023/12/25 11:20:33;;;;;;;19.37;3.90;;;9.20;77.90;;;;;;5023172;28;20057;-75
2023/12/25 11:23:02;;;;;;;19.07;3.63;;;9.20;78.40;;;;;;5022218;28;20056;-75
2023/12/25 11:25:32;;;;;;;19.80;3.93;;;9.20;78.80;;;;;;5022778;28;20056;-75
2023/12/25 11:28:02;;;;;;;23.60;3.50;;;9.10;79.00;;;;;;5015277;28;20057;-75
2023/12/25 11:30:27;;;;;;;22.07;3.80;;;9.10;79.10;;;;;;5032856;28;20049;-75
2023/12/25 11:32:54;;;;;;;19.50;3.90;;;9.10;79.10;;;;;;5019687;28;20575;-75
2023/12/25 11:35:31;;;;;;;22.87;4.00;;;9.10;79.20;;;;;;5018007;28;20443;-74
2023/12/25 11:38:19;;;;;;;19.93;4.33;;;9.10;79.40;;;;;;5022960;28;20114;-75
2023/12/25 11:40:50;;;;;;;20.67;3.87;;;9.10;79.50;;;;;;5022885;28;20049;-75
2023/12/25 11:43:19;;;;;;;22.50;3.88;;;9.10;79.60;;;;;;5015796;28;20150;-75
2023/12/25 11:45:53;;;;;;;17.80;4.00;;;9.10;79.70;;;;;;5023080;28;20081;-75
2023/12/25 11:48:18;;;;;;;24.10;4.60;;;9.00;79.60;;;;;;5022604;28;20049;-75
2023/12/25 11:50:45;;;;;;;18.50;3.87;;;9.00;79.80;;;;;;5034947;28;20619;-75
2023/12/25 11:53:39;;;;;;;21.30;4.13;;;9.00;80.00;;;;;;5021056;28;20490;-75
2023/12/25 11:56:07;;;;;;;21.33;5.57;;;9.00;80.10;;;;;;5023105;28;20053;-74
2023/12/25 11:58:33;;;;;;;26.97;5.33;;;9.00;80.20;;;;;;5022752;28;20045;-74
2023/12/25 12:00:59;;;;;;;23.73;4.57;;;9.00;80.40;;;;;;5021658;28;20492;-75
2023/12/25 12:03:25;;;;;;;24.97;4.80;;;9.00;80.50;;;;;;5023465;28;20137;-75
2023/12/25 12:05:51;;;;;;;30.23;11.23;;;9.00;80.60;;;;;;5022387;28;20525;-75
2023/12/25 12:08:17;;;;;;;28.23;5.40;;;9.00;80.80;;;;;;5023270;28;20113;-75
2023/12/25 12:10:42;;;;;;;24.03;4.33;;;9.00;80.90;;;;;;5021841;28;20079;-75
2023/12/25 12:13:08;;;;;;;28.47;4.57;;;9.00;81.00;;;;;;5021608;28;20091;-75
2023/12/25 12:15:34;;;;;;;24.27;4.40;;;9.00;81.20;;;;;;5020919;28;20058;-75
2023/12/25 12:18:00;;;;;;;23.70;4.73;;;9.00;81.00;;;;;;5021961;28;20049;-75
2023/12/25 12:20:27;;;;;;;22.57;4.70;;;9.00;81.10;;;;;;5022982;28;20046;-75
2023/12/25 12:22:53;;;;;;;29.50;4.67;;;9.00;81.10;;;;;;5022738;28;20050;-75
2023/12/25 12:25:19;;;;;;;26.87;5.53;;;9.10;81.30;;;;;;5020752;28;20069;-75
2023/12/25 12:27:46;;;;;;;22.43;4.20;;;9.00;81.40;;;;;;5022187;28;20057;-75
2023/12/25 12:30:12;;;;;;;25.83;4.30;;;9.00;81.50;;;;;;5022893;28;20053;-75
2023/12/25 12:32:40;;;;;;;26.00;5.37;;;9.00;81.60;;;;;;5010235;28;20228;-75
2023/12/25 12:35:07;;;;;;;21.93;4.37;;;9.00;81.70;;;;;;5006032;28;20603;-74
2023/12/25 12:37:34;;;;;;;25.67;5.00;;;9.00;82.00;;;;;;5019936;28;20056;-75
2023/12/25 12:40:04;;;;;;;22.30;4.63;;;9.00;82.10;;;;;;5017944;28;20049;-75